sensor_id;sensor_type;location;lat;lon;timestamp;P1;durP1;ratioP1;P2;durP2;ratioP2
25824;SDS011;13658;44.534;18.694;2022-09-30T00:01:43;4.50;;;2.10;;
25824;SDS011;13658;44.534;18.694;2022-09-30T00:04:13;5.82;;;2.45;;
25824;SDS011;13658;44.534;18.694;2022-09-30T00:06:41;4.30;;;2.20;;
25824;SDS011;13658;44.534;18.694;2022-09-30T00:09:07;3.67;;;2.50;;
25824;SDS011;13658;44.534;18.694;2022-09-30T00:11:35;6.47;;;2.65;;
25824;SDS011;13658;44.534;18.694;2022-09-30T00:14:03;4.53;;;2.67;;
25824;SDS011;13658;44.534;18.694;2022-09-30T00:16:31;4.13;;;1.88;;
25824;SDS011;13658;44.534;18.694;2022-09-30T00:18:59;7.25;;;2.33;;
25824;SDS011;13658;44.534;18.694;2022-09-30T00:21:25;4.60;;;2.13;;
25824;SDS011;13658;44.534;18.694;2022-09-30T00:23:52;7.43;;;2.00;;
25824;SDS011;13658;44.534;18.694;2022-09-30T00:26:20;9.20;;;2.35;;
25824;SDS011;13658;44.534;18.694;2022-09-30T00:28:50;5.60;;;2.58;;
25824;SDS011;13658;44.534;18.694;2022-09-30T00:31:18;5.38;;;2.20;;
25824;SDS011;13658;44.534;18.694;2022-09-30T00:33:46;4.10;;;2.00;;
25824;SDS011;13658;44.534;18.694;2022-09-30T00:36:41;3.03;;;1.50;;
25824;SDS011;13658;44.534;18.694;2022-09-30T00:39:11;3.15;;;1.50;;
25824;SDS011;13658;44.534;18.694;2022-09-30T00:41:39;3.35;;;1.67;;
25824;SDS011;13658;44.534;18.694;2022-09-30T00:49:58;3.55;;;1.70;;
25824;SDS011;13658;44.534;18.694;2022-09-30T00:52:29;2.53;;;1.40;;
25824;SDS011;13658;44.534;18.694;2022-09-30T00:54:57;2.05;;;1.40;;
25824;SDS011;13658;44.534;18.694;2022-09-30T00:57:27;2.38;;;1.52;;
25824;SDS011;13658;44.534;18.694;2022-09-30T00:59:53;1.40;;;1.10;;
25824;SDS011;13658;44.534;18.694;2022-09-30T01:02:19;1.73;;;1.20;;
25824;SDS011;13658;44.534;18.694;2022-09-30T01:04:45;3.95;;;2.20;;
25824;SDS011;13658;44.534;18.694;2022-09-30T01:07:12;6.55;;;2.10;;
25824;SDS011;13658;44.534;18.694;2022-09-30T01:09:39;6.85;;;2.08;;
25824;SDS011;13658;44.534;18.694;2022-09-30T01:12:11;2.58;;;1.45;;
25824;SDS011;13658;44.534;18.694;2022-09-30T01:14:45;3.83;;;1.65;;
25824;SDS011;13658;44.534;18.694;2022-09-30T01:17:25;3.00;;;1.20;;
25824;SDS011;13658;44.534;18.694;2022-09-30T01:23:03;1.80;;;1.35;;
25824;SDS011;13658;44.534;18.694;2022-09-30T01:26:32;3.28;;;1.90;;
25824;SDS011;13658;44.534;18.694;2022-09-30T01:37:26;2.38;;;1.45;;
25824;SDS011;13658;44.534;18.694;2022-09-30T01:45:36;2.35;;;1.70;;
25824;SDS011;13658;44.534;18.694;2022-09-30T01:50:42;2.67;;;1.77;;
25824;SDS011;13658;44.534;18.694;2022-09-30T01:53:22;4.25;;;1.80;;
25824;SDS011;13658;44.534;18.694;2022-09-30T01:55:59;4.47;;;2.10;;
25824;SDS011;13658;44.534;18.694;2022-09-30T02:01:06;6.93;;;2.03;;
25824;SDS011;13658;44.534;18.694;2022-09-30T02:03:41;2.70;;;1.80;;
25824;SDS011;13658;44.534;18.694;2022-09-30T02:06:15;5.22;;;2.05;;
25824;SDS011;13658;44.534;18.694;2022-09-30T02:11:28;3.60;;;2.53;;
25824;SDS011;13658;44.534;18.694;2022-09-30T02:16:42;6.55;;;2.67;;
25824;SDS011;13658;44.534;18.694;2022-09-30T02:19:25;3.67;;;2.30;;
25824;SDS011;13658;44.534;18.694;2022-09-30T02:21:58;5.38;;;2.78;;
25824;SDS011;13658;44.534;18.694;2022-09-30T02:24:29;6.95;;;2.50;;
25824;SDS011;13658;44.534;18.694;2022-09-30T02:27:01;4.63;;;2.83;;
25824;SDS011;13658;44.534;18.694;2022-09-30T02:29:34;5.57;;;3.35;;
25824;SDS011;13658;44.534;18.694;2022-09-30T02:32:46;5.72;;;3.15;;
25824;SDS011;13658;44.534;18.694;2022-09-30T02:35:05;5.57;;;2.97;;
25824;SDS011;13658;44.534;18.694;2022-09-30T02:37:36;6.60;;;3.35;;
25824;SDS011;13658;44.534;18.694;2022-09-30T02:42:55;5.70;;;3.70;;
25824;SDS011;13658;44.534;18.694;2022-09-30T02:45:21;8.85;;;3.88;;
25824;SDS011;13658;44.534;18.694;2022-09-30T02:53:22;8.00;;;4.40;;
25824;SDS011;13658;44.534;18.694;2022-09-30T02:56:10;6.30;;;4.30;;
25824;SDS011;13658;44.534;18.694;2022-09-30T02:58:48;6.22;;;4.07;;
25824;SDS011;13658;44.534;18.694;2022-09-30T03:01:16;8.50;;;4.38;;
25824;SDS011;13658;44.534;18.694;2022-09-30T03:03:49;6.70;;;4.22;;
25824;SDS011;13658;44.534;18.694;2022-09-30T03:06:18;6.88;;;4.43;;
25824;SDS011;13658;44.534;18.694;2022-09-30T03:08:45;7.05;;;4.53;;
25824;SDS011;13658;44.534;18.694;2022-09-30T03:11:16;6.88;;;3.90;;
25824;SDS011;13658;44.534;18.694;2022-09-30T03:16:52;8.68;;;4.57;;
25824;SDS011;13658;44.534;18.694;2022-09-30T03:20:01;6.35;;;4.00;;
25824;SDS011;13658;44.534;18.694;2022-09-30T03:31:21;7.03;;;4.15;;
25824;SDS011;13658;44.534;18.694;2022-09-30T03:37:44;13.30;;;8.15;;
25824;SDS011;13658;44.534;18.694;2022-09-30T03:39:55;15.43;;;13.13;;
25824;SDS011;13658;44.534;18.694;2022-09-30T03:42:38;14.65;;;13.00;;
25824;SDS011;13658;44.534;18.694;2022-09-30T03:45:15;18.02;;;15.70;;
25824;SDS011;13658;44.534;18.694;2022-09-30T03:47:50;17.10;;;12.60;;
25824;SDS011;13658;44.534;18.694;2022-09-30T03:50:20;24.63;;;18.92;;
25824;SDS011;13658;44.534;18.694;2022-09-30T03:52:49;20.13;;;15.63;;
25824;SDS011;13658;44.534;18.694;2022-09-30T03:55:16;12.07;;;6.97;;
25824;SDS011;13658;44.534;18.694;2022-09-30T03:57:43;14.23;;;7.03;;
25824;SDS011;13658;44.534;18.694;2022-09-30T04:00:10;11.45;;;7.05;;
25824;SDS011;13658;44.534;18.694;2022-09-30T04:02:37;24.98;;;18.80;;
25824;SDS011;13658;44.534;18.694;2022-09-30T04:05:03;24.30;;;17.58;;
25824;SDS011;13658;44.534;18.694;2022-09-30T04:07:30;22.30;;;19.00;;
25824;SDS011;13658;44.534;18.694;2022-09-30T04:09:56;19.92;;;16.58;;
25824;SDS011;13658;44.534;18.694;2022-09-30T04:12:22;12.02;;;8.25;;
25824;SDS011;13658;44.534;18.694;2022-09-30T04:14:48;12.45;;;7.15;;
25824;SDS011;13658;44.534;18.694;2022-09-30T04:17:14;13.10;;;7.18;;
25824;SDS011;13658;44.534;18.694;2022-09-30T04:19:40;14.95;;;8.13;;
25824;SDS011;13658;44.534;18.694;2022-09-30T04:22:06;16.30;;;9.65;;
25824;SDS011;13658;44.534;18.694;2022-09-30T04:24:32;12.77;;;7.68;;
25824;SDS011;13658;44.534;18.694;2022-09-30T04:26:58;10.73;;;7.40;;
25824;SDS011;13658;44.534;18.694;2022-09-30T04:29:24;9.38;;;7.35;;
25824;SDS011;13658;44.534;18.694;2022-09-30T04:31:51;9.80;;;7.47;;
25824;SDS011;13658;44.534;18.694;2022-09-30T04:34:17;12.90;;;7.55;;
25824;SDS011;13658;44.534;18.694;2022-09-30T04:36:44;13.55;;;9.20;;
25824;SDS011;13658;44.534;18.694;2022-09-30T04:39:10;11.73;;;8.70;;
25824;SDS011;13658;44.534;18.694;2022-09-30T04:41:36;15.10;;;8.95;;
25824;SDS011;13658;44.534;18.694;2022-09-30T04:44:02;16.50;;;10.35;;
25824;SDS011;13658;44.534;18.694;2022-09-30T04:46:31;19.27;;;13.38;;
25824;SDS011;13658;44.534;18.694;2022-09-30T04:48:58;17.55;;;12.38;;
25824;SDS011;13658;44.534;18.694;2022-09-30T04:51:25;17.38;;;11.70;;
25824;SDS011;13658;44.534;18.694;2022-09-30T04:53:51;17.45;;;10.05;;
25824;SDS011;13658;44.534;18.694;2022-09-30T04:56:17;21.33;;;12.50;;
25824;SDS011;13658;44.534;18.694;2022-09-30T04:58:43;13.27;;;7.88;;
25824;SDS011;13658;44.534;18.694;2022-09-30T05:01:10;12.15;;;7.65;;
25824;SDS011;13658;44.534;18.694;2022-09-30T05:03:38;14.82;;;8.70;;
25824;SDS011;13658;44.534;18.694;2022-09-30T05:06:05;17.95;;;10.18;;
25824;SDS011;13658;44.534;18.694;2022-09-30T05:08:32;18.25;;;11.40;;
25824;SDS011;13658;44.534;18.694;2022-09-30T05:10:59;21.48;;;10.80;;
25824;SDS011;13658;44.534;18.694;2022-09-30T05:13:34;16.98;;;9.38;;
25824;SDS011;13658;44.534;18.694;2022-09-30T05:16:02;21.13;;;13.23;;
25824;SDS011;13658;44.534;18.694;2022-09-30T05:18:29;22.08;;;12.98;;
25824;SDS011;13658;44.534;18.694;2022-09-30T05:20:55;21.45;;;15.23;;
25824;SDS011;13658;44.534;18.694;2022-09-30T05:23:22;27.60;;;18.02;;
25824;SDS011;13658;44.534;18.694;2022-09-30T05:25:49;32.35;;;19.67;;
25824;SDS011;13658;44.534;18.694;2022-09-30T05:28:15;27.20;;;17.10;;
25824;SDS011;13658;44.534;18.694;2022-09-30T05:30:42;31.00;;;21.42;;
25824;SDS011;13658;44.534;18.694;2022-09-30T05:33:10;58.45;;;38.03;;
25824;SDS011;13658;44.534;18.694;2022-09-30T05:35:37;57.83;;;38.80;;
25824;SDS011;13658;44.534;18.694;2022-09-30T05:38:05;67.85;;;46.03;;
25824;SDS011;13658;44.534;18.694;2022-09-30T05:40:32;58.20;;;39.80;;
25824;SDS011;13658;44.534;18.694;2022-09-30T05:42:58;49.90;;;34.67;;
25824;SDS011;13658;44.534;18.694;2022-09-30T05:45:25;48.53;;;36.08;;
25824;SDS011;13658;44.534;18.694;2022-09-30T05:47:52;41.40;;;28.08;;
25824;SDS011;13658;44.534;18.694;2022-09-30T05:50:18;35.33;;;25.98;;
25824;SDS011;13658;44.534;18.694;2022-09-30T05:52:45;35.13;;;26.70;;
25824;SDS011;13658;44.534;18.694;2022-09-30T05:55:10;35.22;;;25.23;;
25824;SDS011;13658;44.534;18.694;2022-09-30T05:57:37;32.97;;;24.45;;
25824;SDS011;13658;44.534;18.694;2022-09-30T06:00:04;33.13;;;23.88;;
25824;SDS011;13658;44.534;18.694;2022-09-30T06:02:36;26.35;;;17.00;;
25824;SDS011;13658;44.534;18.694;2022-09-30T06:05:03;20.73;;;15.65;;
25824;SDS011;13658;44.534;18.694;2022-09-30T06:07:34;17.20;;;11.65;;
25824;SDS011;13658;44.534;18.694;2022-09-30T06:10:01;12.80;;;10.38;;
25824;SDS011;13658;44.534;18.694;2022-09-30T06:12:29;13.30;;;10.02;;
25824;SDS011;13658;44.534;18.694;2022-09-30T06:14:55;14.77;;;10.77;;
25824;SDS011;13658;44.534;18.694;2022-09-30T06:17:21;13.38;;;9.15;;
25824;SDS011;13658;44.534;18.694;2022-09-30T06:19:48;10.88;;;8.20;;
25824;SDS011;13658;44.534;18.694;2022-09-30T06:22:14;9.65;;;7.97;;
25824;SDS011;13658;44.534;18.694;2022-09-30T06:24:41;10.43;;;6.65;;
25824;SDS011;13658;44.534;18.694;2022-09-30T06:27:08;9.30;;;6.90;;
25824;SDS011;13658;44.534;18.694;2022-09-30T06:29:34;9.45;;;7.15;;
25824;SDS011;13658;44.534;18.694;2022-09-30T06:32:00;8.90;;;6.70;;
25824;SDS011;13658;44.534;18.694;2022-09-30T06:34:26;14.30;;;6.72;;
25824;SDS011;13658;44.534;18.694;2022-09-30T06:36:52;9.95;;;5.93;;
25824;SDS011;13658;44.534;18.694;2022-09-30T06:39:18;11.13;;;6.85;;
25824;SDS011;13658;44.534;18.694;2022-09-30T06:41:45;14.35;;;9.43;;
25824;SDS011;13658;44.534;18.694;2022-09-30T06:44:22;13.07;;;6.65;;
25824;SDS011;13658;44.534;18.694;2022-09-30T06:46:48;9.50;;;5.40;;
25824;SDS011;13658;44.534;18.694;2022-09-30T06:49:14;18.05;;;10.15;;
25824;SDS011;13658;44.534;18.694;2022-09-30T06:51:40;10.75;;;6.25;;
25824;SDS011;13658;44.534;18.694;2022-09-30T06:54:06;7.57;;;4.75;;
25824;SDS011;13658;44.534;18.694;2022-09-30T06:56:33;6.25;;;4.20;;
25824;SDS011;13658;44.534;18.694;2022-09-30T06:58:59;6.47;;;4.30;;
25824;SDS011;13658;44.534;18.694;2022-09-30T07:01:25;7.38;;;3.90;;
25824;SDS011;13658;44.534;18.694;2022-09-30T07:03:53;6.93;;;4.80;;
25824;SDS011;13658;44.534;18.694;2022-09-30T07:06:22;25.83;;;13.70;;
25824;SDS011;13658;44.534;18.694;2022-09-30T07:08:50;9.93;;;4.60;;
25824;SDS011;13658;44.534;18.694;2022-09-30T07:11:16;8.85;;;5.15;;
25824;SDS011;13658;44.534;18.694;2022-09-30T07:13:42;6.97;;;4.32;;
25824;SDS011;13658;44.534;18.694;2022-09-30T07:16:13;9.60;;;5.50;;
25824;SDS011;13658;44.534;18.694;2022-09-30T07:18:40;9.88;;;5.30;;
25824;SDS011;13658;44.534;18.694;2022-09-30T07:21:08;7.43;;;4.65;;
25824;SDS011;13658;44.534;18.694;2022-09-30T07:23:35;6.78;;;3.90;;
25824;SDS011;13658;44.534;18.694;2022-09-30T07:26:01;6.20;;;3.97;;
25824;SDS011;13658;44.534;18.694;2022-09-30T07:28:30;10.93;;;3.70;;
25824;SDS011;13658;44.534;18.694;2022-09-30T07:30:59;9.13;;;5.45;;
25824;SDS011;13658;44.534;18.694;2022-09-30T07:33:27;9.50;;;5.85;;
25824;SDS011;13658;44.534;18.694;2022-09-30T07:35:56;11.52;;;6.65;;
25824;SDS011;13658;44.534;18.694;2022-09-30T07:38:24;13.60;;;9.63;;
25824;SDS011;13658;44.534;18.694;2022-09-30T07:43:26;17.60;;;10.88;;
25824;SDS011;13658;44.534;18.694;2022-09-30T07:46:03;10.57;;;4.95;;
25824;SDS011;13658;44.534;18.694;2022-09-30T07:48:29;11.05;;;5.93;;
25824;SDS011;13658;44.534;18.694;2022-09-30T07:51:09;10.75;;;5.90;;
25824;SDS011;13658;44.534;18.694;2022-09-30T07:53:40;9.98;;;5.50;;
25824;SDS011;13658;44.534;18.694;2022-09-30T07:56:08;9.40;;;5.68;;
25824;SDS011;13658;44.534;18.694;2022-09-30T07:58:35;5.32;;;3.83;;
25824;SDS011;13658;44.534;18.694;2022-09-30T08:01:01;5.97;;;3.20;;
25824;SDS011;13658;44.534;18.694;2022-09-30T08:03:31;4.28;;;3.50;;
25824;SDS011;13658;44.534;18.694;2022-09-30T08:06:06;12.80;;;7.28;;
25824;SDS011;13658;44.534;18.694;2022-09-30T08:08:33;8.40;;;4.25;;
25824;SDS011;13658;44.534;18.694;2022-09-30T08:11:00;6.68;;;3.95;;
25824;SDS011;13658;44.534;18.694;2022-09-30T08:13:27;5.07;;;3.45;;
25824;SDS011;13658;44.534;18.694;2022-09-30T08:15:52;8.30;;;4.70;;
25824;SDS011;13658;44.534;18.694;2022-09-30T08:18:19;7.85;;;4.47;;
25824;SDS011;13658;44.534;18.694;2022-09-30T08:20:45;7.82;;;3.90;;
25824;SDS011;13658;44.534;18.694;2022-09-30T08:23:11;7.80;;;4.20;;
25824;SDS011;13658;44.534;18.694;2022-09-30T08:25:37;8.27;;;4.05;;
25824;SDS011;13658;44.534;18.694;2022-09-30T08:28:02;7.00;;;4.53;;
25824;SDS011;13658;44.534;18.694;2022-09-30T08:30:28;6.70;;;3.95;;
25824;SDS011;13658;44.534;18.694;2022-09-30T08:32:54;9.18;;;4.40;;
25824;SDS011;13658;44.534;18.694;2022-09-30T08:35:21;10.23;;;3.50;;
25824;SDS011;13658;44.534;18.694;2022-09-30T08:37:48;84.93;;;56.65;;
25824;SDS011;13658;44.534;18.694;2022-09-30T08:40:22;15.93;;;10.70;;
25824;SDS011;13658;44.534;18.694;2022-09-30T08:43:01;5.63;;;2.90;;
25824;SDS011;13658;44.534;18.694;2022-09-30T08:45:55;5.43;;;3.10;;
25824;SDS011;13658;44.534;18.694;2022-09-30T08:48:40;13.52;;;10.23;;
25824;SDS011;13658;44.534;18.694;2022-09-30T08:51:40;7.35;;;4.07;;
25824;SDS011;13658;44.534;18.694;2022-09-30T08:54:12;59.03;;;40.55;;
25824;SDS011;13658;44.534;18.694;2022-09-30T08:56:41;18.10;;;13.18;;
25824;SDS011;13658;44.534;18.694;2022-09-30T09:02:11;7.85;;;4.32;;
25824;SDS011;13658;44.534;18.694;2022-09-30T09:04:43;10.70;;;6.13;;
25824;SDS011;13658;44.534;18.694;2022-09-30T09:21:00;5.78;;;4.65;;
25824;SDS011;13658;44.534;18.694;2022-09-30T09:23:45;8.35;;;4.85;;
25824;SDS011;13658;44.534;18.694;2022-09-30T09:26:14;23.83;;;16.88;;
25824;SDS011;13658;44.534;18.694;2022-09-30T09:28:47;25.27;;;19.80;;
25824;SDS011;13658;44.534;18.694;2022-09-30T09:31:48;14.00;;;12.40;;
25824;SDS011;13658;44.534;18.694;2022-09-30T09:34:14;7.18;;;3.95;;
25824;SDS011;13658;44.534;18.694;2022-09-30T09:47:27;6.35;;;3.63;;
25824;SDS011;13658;44.534;18.694;2022-09-30T09:49:56;4.63;;;1.80;;
25824;SDS011;13658;44.534;18.694;2022-09-30T09:55:25;11.00;;;8.65;;
25824;SDS011;13658;44.534;18.694;2022-09-30T09:58:06;10.85;;;8.05;;
25824;SDS011;13658;44.534;18.694;2022-09-30T10:00:35;10.47;;;7.90;;
25824;SDS011;13658;44.534;18.694;2022-09-30T10:05:44;5.55;;;2.20;;
25824;SDS011;13658;44.534;18.694;2022-09-30T10:08:19;7.85;;;2.15;;
25824;SDS011;13658;44.534;18.694;2022-09-30T10:13:23;6.47;;;3.95;;
25824;SDS011;13658;44.534;18.694;2022-09-30T10:15:51;7.22;;;2.92;;
25824;SDS011;13658;44.534;18.694;2022-09-30T10:18:24;6.43;;;3.80;;
25824;SDS011;13658;44.534;18.694;2022-09-30T10:20:56;7.65;;;3.70;;
25824;SDS011;13658;44.534;18.694;2022-09-30T10:26:01;5.88;;;3.35;;
25824;SDS011;13658;44.534;18.694;2022-09-30T10:29:01;15.85;;;6.65;;
25824;SDS011;13658;44.534;18.694;2022-09-30T10:31:33;7.40;;;5.35;;
25824;SDS011;13658;44.534;18.694;2022-09-30T10:36:53;12.07;;;4.88;;
25824;SDS011;13658;44.534;18.694;2022-09-30T10:39:36;4.75;;;3.30;;
25824;SDS011;13658;44.534;18.694;2022-09-30T10:47:44;15.98;;;7.20;;
25824;SDS011;13658;44.534;18.694;2022-09-30T10:50:14;15.85;;;8.82;;
25824;SDS011;13658;44.534;18.694;2022-09-30T10:55:31;13.25;;;4.90;;
25824;SDS011;13658;44.534;18.694;2022-09-30T11:01:13;10.15;;;5.03;;
25824;SDS011;13658;44.534;18.694;2022-09-30T11:06:43;12.02;;;4.90;;
25824;SDS011;13658;44.534;18.694;2022-09-30T11:09:16;11.68;;;4.50;;
25824;SDS011;13658;44.534;18.694;2022-09-30T11:11:55;7.03;;;2.92;;
25824;SDS011;13658;44.534;18.694;2022-09-30T11:14:57;16.63;;;7.35;;
25824;SDS011;13658;44.534;18.694;2022-09-30T11:17:52;11.55;;;6.93;;
25824;SDS011;13658;44.534;18.694;2022-09-30T11:23:02;11.65;;;5.07;;
25824;SDS011;13658;44.534;18.694;2022-09-30T11:39:57;18.13;;;6.45;;
25824;SDS011;13658;44.534;18.694;2022-09-30T11:50:50;41.60;;;23.95;;
25824;SDS011;13658;44.534;18.694;2022-09-30T11:55:54;19.52;;;10.65;;
25824;SDS011;13658;44.534;18.694;2022-09-30T11:58:39;17.20;;;8.93;;
25824;SDS011;13658;44.534;18.694;2022-09-30T12:03:54;8.50;;;3.45;;
25824;SDS011;13658;44.534;18.694;2022-09-30T12:06:28;9.70;;;4.30;;
25824;SDS011;13658;44.534;18.694;2022-09-30T12:09:01;6.78;;;2.70;;
25824;SDS011;13658;44.534;18.694;2022-09-30T12:11:55;5.85;;;2.08;;
25824;SDS011;13658;44.534;18.694;2022-09-30T12:14:41;6.15;;;3.95;;
25824;SDS011;13658;44.534;18.694;2022-09-30T12:17:33;8.05;;;3.50;;
25824;SDS011;13658;44.534;18.694;2022-09-30T12:22:42;7.78;;;3.55;;
25824;SDS011;13658;44.534;18.694;2022-09-30T12:25:12;10.63;;;3.30;;
25824;SDS011;13658;44.534;18.694;2022-09-30T12:30:47;6.82;;;2.55;;
25824;SDS011;13658;44.534;18.694;2022-09-30T12:33:30;6.88;;;1.67;;
25824;SDS011;13658;44.534;18.694;2022-09-30T12:36:08;10.18;;;3.72;;
25824;SDS011;13658;44.534;18.694;2022-09-30T12:44:11;11.13;;;3.08;;
25824;SDS011;13658;44.534;18.694;2022-09-30T12:47:42;8.30;;;2.97;;
25824;SDS011;13658;44.534;18.694;2022-09-30T12:49:55;5.95;;;2.55;;
25824;SDS011;13658;44.534;18.694;2022-09-30T12:52:24;9.93;;;3.42;;
25824;SDS011;13658;44.534;18.694;2022-09-30T12:54:56;8.30;;;3.30;;
25824;SDS011;13658;44.534;18.694;2022-09-30T12:57:30;7.95;;;3.17;;
25824;SDS011;13658;44.534;18.694;2022-09-30T13:00:04;6.63;;;2.60;;
25824;SDS011;13658;44.534;18.694;2022-09-30T13:02:42;9.60;;;4.13;;
25824;SDS011;13658;44.534;18.694;2022-09-30T13:10:32;6.43;;;3.17;;
25824;SDS011;13658;44.534;18.694;2022-09-30T13:13:14;6.65;;;3.10;;
25824;SDS011;13658;44.534;18.694;2022-09-30T13:15:48;10.88;;;4.15;;
25824;SDS011;13658;44.534;18.694;2022-09-30T13:21:14;5.20;;;1.83;;
25824;SDS011;13658;44.534;18.694;2022-09-30T13:23:35;6.25;;;2.00;;
25824;SDS011;13658;44.534;18.694;2022-09-30T13:26:01;5.13;;;2.53;;
25824;SDS011;13658;44.534;18.694;2022-09-30T13:28:29;8.63;;;2.83;;
25824;SDS011;13658;44.534;18.694;2022-09-30T13:31:15;10.13;;;2.30;;
25824;SDS011;13658;44.534;18.694;2022-09-30T13:33:46;10.35;;;4.50;;
25824;SDS011;13658;44.534;18.694;2022-09-30T13:41:49;6.63;;;1.92;;
25824;SDS011;13658;44.534;18.694;2022-09-30T13:47:32;5.47;;;2.20;;
25824;SDS011;13658;44.534;18.694;2022-09-30T13:50:14;7.63;;;2.40;;
25824;SDS011;13658;44.534;18.694;2022-09-30T13:52:57;8.38;;;3.47;;
25824;SDS011;13658;44.534;18.694;2022-09-30T13:55:34;5.57;;;2.55;;
25824;SDS011;13658;44.534;18.694;2022-09-30T14:00:45;6.55;;;2.65;;
25824;SDS011;13658;44.534;18.694;2022-09-30T14:08:47;3.72;;;1.83;;
25824;SDS011;13658;44.534;18.694;2022-09-30T14:11:41;8.55;;;4.90;;
25824;SDS011;13658;44.534;18.694;2022-09-30T14:19:40;16.35;;;6.78;;
25824;SDS011;13658;44.534;18.694;2022-09-30T14:22:18;14.95;;;6.35;;
25824;SDS011;13658;44.534;18.694;2022-09-30T14:24:44;19.60;;;8.13;;
25824;SDS011;13658;44.534;18.694;2022-09-30T14:27:17;19.98;;;7.25;;
25824;SDS011;13658;44.534;18.694;2022-09-30T14:30:24;13.40;;;6.75;;
25824;SDS011;13658;44.534;18.694;2022-09-30T14:32:59;16.83;;;7.40;;
25824;SDS011;13658;44.534;18.694;2022-09-30T14:35:28;19.02;;;6.95;;
25824;SDS011;13658;44.534;18.694;2022-09-30T14:37:57;9.55;;;4.20;;
25824;SDS011;13658;44.534;18.694;2022-09-30T14:40:25;10.45;;;4.60;;
25824;SDS011;13658;44.534;18.694;2022-09-30T14:43:00;8.73;;;3.67;;
25824;SDS011;13658;44.534;18.694;2022-09-30T14:45:32;9.70;;;3.55;;
25824;SDS011;13658;44.534;18.694;2022-09-30T14:48:04;9.70;;;3.58;;
25824;SDS011;13658;44.534;18.694;2022-09-30T14:50:44;17.77;;;6.55;;
25824;SDS011;13658;44.534;18.694;2022-09-30T14:56:00;8.50;;;4.00;;
25824;SDS011;13658;44.534;18.694;2022-09-30T14:58:36;8.63;;;3.33;;
25824;SDS011;13658;44.534;18.694;2022-09-30T15:01:06;8.00;;;3.05;;
25824;SDS011;13658;44.534;18.694;2022-09-30T15:03:37;11.90;;;3.35;;
25824;SDS011;13658;44.534;18.694;2022-09-30T15:06:06;6.63;;;3.20;;
25824;SDS011;13658;44.534;18.694;2022-09-30T15:08:44;4.88;;;2.83;;
25824;SDS011;13658;44.534;18.694;2022-09-30T15:11:16;9.68;;;2.90;;
25824;SDS011;13658;44.534;18.694;2022-09-30T15:13:44;16.10;;;5.80;;
25824;SDS011;13658;44.534;18.694;2022-09-30T15:16:29;12.52;;;5.32;;
25824;SDS011;13658;44.534;18.694;2022-09-30T15:18:57;10.13;;;4.20;;
25824;SDS011;13658;44.534;18.694;2022-09-30T15:21:24;15.98;;;7.95;;
25824;SDS011;13658;44.534;18.694;2022-09-30T15:23:56;20.08;;;9.63;;
25824;SDS011;13658;44.534;18.694;2022-09-30T15:26:25;14.73;;;8.88;;
25824;SDS011;13658;44.534;18.694;2022-09-30T15:28:52;17.80;;;8.15;;
25824;SDS011;13658;44.534;18.694;2022-09-30T15:31:26;16.90;;;6.70;;
25824;SDS011;13658;44.534;18.694;2022-09-30T15:34:06;23.60;;;14.07;;
25824;SDS011;13658;44.534;18.694;2022-09-30T15:36:47;16.17;;;7.13;;
25824;SDS011;13658;44.534;18.694;2022-09-30T15:39:26;12.10;;;6.40;;
25824;SDS011;13658;44.534;18.694;2022-09-30T15:42:20;15.23;;;5.65;;
25824;SDS011;13658;44.534;18.694;2022-09-30T15:45:01;17.17;;;8.40;;
25824;SDS011;13658;44.534;18.694;2022-09-30T15:47:28;26.35;;;12.75;;
25824;SDS011;13658;44.534;18.694;2022-09-30T15:49:55;21.52;;;11.43;;
25824;SDS011;13658;44.534;18.694;2022-09-30T15:52:28;17.67;;;8.23;;
25824;SDS011;13658;44.534;18.694;2022-09-30T15:55:02;21.70;;;6.60;;
25824;SDS011;13658;44.534;18.694;2022-09-30T16:01:17;17.55;;;7.20;;
25824;SDS011;13658;44.534;18.694;2022-09-30T16:03:58;13.00;;;6.57;;
25824;SDS011;13658;44.534;18.694;2022-09-30T16:06:32;15.45;;;6.85;;
25824;SDS011;13658;44.534;18.694;2022-09-30T16:17:15;15.75;;;9.30;;
25824;SDS011;13658;44.534;18.694;2022-09-30T16:19:52;17.60;;;9.00;;
25824;SDS011;13658;44.534;18.694;2022-09-30T16:23:13;28.38;;;13.40;;
25824;SDS011;13658;44.534;18.694;2022-09-30T16:25:20;33.58;;;14.45;;
25824;SDS011;13658;44.534;18.694;2022-09-30T16:27:54;30.02;;;14.90;;
25824;SDS011;13658;44.534;18.694;2022-09-30T16:30:41;43.40;;;21.02;;
25824;SDS011;13658;44.534;18.694;2022-09-30T16:33:10;30.63;;;16.75;;
25824;SDS011;13658;44.534;18.694;2022-09-30T16:35:40;23.40;;;12.65;;
25824;SDS011;13658;44.534;18.694;2022-09-30T16:38:11;69.15;;;34.97;;
25824;SDS011;13658;44.534;18.694;2022-09-30T16:40:39;49.08;;;24.13;;
25824;SDS011;13658;44.534;18.694;2022-09-30T16:43:05;26.52;;;13.45;;
25824;SDS011;13658;44.534;18.694;2022-09-30T16:45:32;56.53;;;30.95;;
25824;SDS011;13658;44.534;18.694;2022-09-30T16:47:59;24.05;;;14.10;;
25824;SDS011;13658;44.534;18.694;2022-09-30T16:53:26;22.40;;;12.68;;
25824;SDS011;13658;44.534;18.694;2022-09-30T16:55:52;19.20;;;10.52;;
25824;SDS011;13658;44.534;18.694;2022-09-30T16:58:18;15.82;;;9.40;;
25824;SDS011;13658;44.534;18.694;2022-09-30T17:00:44;27.48;;;11.07;;
25824;SDS011;13658;44.534;18.694;2022-09-30T17:03:11;20.55;;;11.15;;
25824;SDS011;13658;44.534;18.694;2022-09-30T17:05:39;21.67;;;10.95;;
25824;SDS011;13658;44.534;18.694;2022-09-30T17:08:14;20.02;;;11.63;;
25824;SDS011;13658;44.534;18.694;2022-09-30T17:10:42;26.48;;;10.23;;
25824;SDS011;13658;44.534;18.694;2022-09-30T17:13:10;22.98;;;13.20;;
25824;SDS011;13658;44.534;18.694;2022-09-30T17:15:37;27.75;;;13.80;;
25824;SDS011;13658;44.534;18.694;2022-09-30T17:18:04;26.35;;;13.45;;
25824;SDS011;13658;44.534;18.694;2022-09-30T17:20:31;28.50;;;14.73;;
25824;SDS011;13658;44.534;18.694;2022-09-30T17:22:58;21.92;;;12.27;;
25824;SDS011;13658;44.534;18.694;2022-09-30T17:25:24;22.13;;;12.35;;
25824;SDS011;13658;44.534;18.694;2022-09-30T17:27:50;29.10;;;17.25;;
25824;SDS011;13658;44.534;18.694;2022-09-30T17:30:17;30.10;;;18.65;;
25824;SDS011;13658;44.534;18.694;2022-09-30T17:32:43;33.53;;;20.17;;
25824;SDS011;13658;44.534;18.694;2022-09-30T17:35:10;36.33;;;19.88;;
25824;SDS011;13658;44.534;18.694;2022-09-30T17:37:36;37.88;;;19.67;;
25824;SDS011;13658;44.534;18.694;2022-09-30T17:40:04;31.35;;;16.63;;
25824;SDS011;13658;44.534;18.694;2022-09-30T17:42:50;37.38;;;19.40;;
25824;SDS011;13658;44.534;18.694;2022-09-30T17:45:32;29.30;;;18.20;;
25824;SDS011;13658;44.534;18.694;2022-09-30T17:47:59;30.02;;;15.68;;
25824;SDS011;13658;44.534;18.694;2022-09-30T17:50:25;28.23;;;13.77;;
25824;SDS011;13658;44.534;18.694;2022-09-30T17:52:52;21.90;;;13.50;;
25824;SDS011;13658;44.534;18.694;2022-09-30T17:55:18;25.05;;;14.15;;
25824;SDS011;13658;44.534;18.694;2022-09-30T17:57:44;27.75;;;14.32;;
25824;SDS011;13658;44.534;18.694;2022-09-30T18:00:10;23.65;;;13.75;;
25824;SDS011;13658;44.534;18.694;2022-09-30T18:02:37;26.73;;;14.02;;
25824;SDS011;13658;44.534;18.694;2022-09-30T18:05:04;27.05;;;14.32;;
25824;SDS011;13658;44.534;18.694;2022-09-30T18:07:31;24.70;;;13.27;;
25824;SDS011;13658;44.534;18.694;2022-09-30T18:09:57;24.73;;;13.88;;
25824;SDS011;13658;44.534;18.694;2022-09-30T18:12:23;24.45;;;13.93;;
25824;SDS011;13658;44.534;18.694;2022-09-30T18:14:49;25.35;;;14.23;;